Time;durP1;ratioP1;P1;durP2;ratioP2;P2;SDS_P1;SDS_P2;PMS_P1;PMS_P2;Temp;Humidity;BMP_temperature;BMP_pressure;BME280_temperature;BME280_humidity;BME280_pressure;Samples;Min_cycle;Max_cycle;Signal;HPM_P1;HPM_P2
2024/04/11 00:02:31;;;;;;;0.70;0.50;;;;;;;;;;6814357;26;20556;-75
2024/04/11 00:05:31;;;;;;;0.65;0.50;;;;;;;;;;6812468;26;20145;-74
2024/04/11 00:08:31;;;;;;;0.57;0.57;;;;;;;;;;6808567;26;20069;-75
2024/04/11 00:11:31;;;;;;;0.60;0.60;;;;;;;;;;6785860;26;20080;-75
2024/04/11 00:14:32;;;;;;;2.40;0.60;;;;;;;;;;6770781;26;20015;-74
2024/04/11 00:17:32;;;;;;;1.67;0.80;;;;;;;;;;6814041;26;19990;-77
2024/04/11 00:20:32;;;;;;;1.37;0.70;;;;;;;;;;6793021;26;19999;-74
2024/04/11 00:23:32;;;;;;;1.43;0.70;;;;;;;;;;6769792;26;20026;-75
2024/04/11 00:26:33;;;;;;;0.83;0.60;;;;;;;;;;6772299;26;19997;-75
2024/04/11 00:29:33;;;;;;;1.13;0.80;;;;;;;;;;6770501;26;20032;-75
2024/04/11 00:32:33;;;;;;;1.73;0.53;;;;;;;;;;6770156;26;20038;-75
2024/04/11 00:35:35;;;;;;;0.80;0.67;;;;;;;;;;6798864;26;20071;-75
2024/04/11 00:38:35;;;;;;;0.70;0.65;;;;;;;;;;6775701;26;20014;-79
2024/04/11 00:41:36;;;;;;;0.80;0.70;;;;;;;;;;6815315;26;20536;-75
2024/04/11 00:44:37;;;;;;;1.02;0.60;;;;;;;;;;6811097;26;20007;-75
2024/04/11 00:47:40;;;;;;;1.00;0.77;;;;;;;;;;6814603;26;20334;-77
2024/04/11 00:50:42;;;;;;;0.88;0.60;;;;;;;;;;6814798;26;20005;-75
2024/04/11 00:53:42;;;;;;;1.05;0.75;;;;;;;;;;6803958;26;20003;-75
2024/04/11 00:56:44;;;;;;;0.80;0.60;;;;;;;;;;6772638;26;20059;-75
2024/04/11 00:59:45;;;;;;;0.88;0.70;;;;;;;;;;6769941;26;20016;-75
2024/04/11 01:02:45;;;;;;;0.70;0.70;;;;;;;;;;6808898;26;20112;-75
2024/04/11 01:05:47;;;;;;;1.52;0.60;;;;;;;;;;6808551;26;19995;-75
2024/04/11 01:08:47;;;;;;;0.80;0.65;;;;;;;;;;6785935;26;20323;-75
2024/04/11 01:11:47;;;;;;;0.67;0.60;;;;;;;;;;6815419;26;19994;-75
2024/04/11 01:14:50;;;;;;;0.50;0.50;;;;;;;;;;6811183;26;20439;-75
2024/04/11 01:17:51;;;;;;;0.80;0.70;;;;;;;;;;6812570;26;20009;-75
2024/04/11 01:20:51;;;;;;;1.02;0.70;;;;;;;;;;6814119;26;20006;-75
2024/04/11 01:23:53;;;;;;;0.63;0.60;;;;;;;;;;6797390;26;20423;-75
2024/04/11 01:26:56;;;;;;;0.52;0.45;;;;;;;;;;6769236;26;19995;-75
2024/04/11 01:29:57;;;;;;;0.60;0.60;;;;;;;;;;6809976;26;20058;-76
2024/04/11 01:33:00;;;;;;;1.13;0.70;;;;;;;;;;6777895;26;20093;-75
2024/04/11 01:36:01;;;;;;;2.47;0.90;;;;;;;;;;6783998;26;20034;-75
2024/04/11 01:39:04;;;;;;;0.67;0.67;;;;;;;;;;6811887;26;20326;-75
2024/04/11 01:42:05;;;;;;;0.77;0.65;;;;;;;;;;6812441;26;20031;-75
2024/04/11 01:45:06;;;;;;;1.58;0.68;;;;;;;;;;6810562;26;20015;-75
2024/04/11 01:48:07;;;;;;;0.97;0.70;;;;;;;;;;6813114;26;20435;-75
2024/04/11 01:51:09;;;;;;;1.02;0.80;;;;;;;;;;6802852;26;20027;-75
2024/04/11 01:54:11;;;;;;;1.52;0.77;;;;;;;;;;6792294;26;20596;-75
2024/04/11 01:57:11;;;;;;;1.35;0.70;;;;;;;;;;6768560;26;20005;-75
2024/04/11 02:00:15;;;;;;;4.57;1.00;;;;;;;;;;6772885;26;19995;-75
2024/04/11 02:03:15;;;;;;;0.70;0.70;;;;;;;;;;6806893;26;20009;-75
2024/04/11 02:06:15;;;;;;;1.10;0.67;;;;;;;;;;6813299;26;20467;-75
2024/04/11 02:09:22;;;;;;;0.80;0.70;;;;;;;;;;6809882;26;19990;-75
2024/04/11 02:12:25;;;;;;;0.82;0.60;;;;;;;;;;6813801;26;19994;-75
2024/04/11 02:15:25;;;;;;;0.80;0.50;;;;;;;;;;6807662;26;20569;-75
2024/04/11 02:18:27;;;;;;;0.60;0.50;;;;;;;;;;6812603;26;20002;-75
2024/04/11 02:21:27;;;;;;;0.50;0.50;;;;;;;;;;6811918;26;20066;-81
2024/04/11 02:24:27;;;;;;;0.43;0.43;;;;;;;;;;6766946;26;19991;-75
2024/04/11 02:27:29;;;;;;;0.83;0.67;;;;;;;;;;6769214;26;20014;-75
2024/04/11 02:30:29;;;;;;;1.08;0.68;;;;;;;;;;6768509;26;19991;-74
2024/04/11 02:33:31;;;;;;;0.83;0.60;;;;;;;;;;6795369;26;20013;-75
2024/04/11 02:36:32;;;;;;;1.00;0.70;;;;;;;;;;6811144;26;19999;-74
2024/04/11 02:39:33;;;;;;;0.60;0.60;;;;;;;;;;6789624;26;20005;-75
2024/04/11 02:42:40;;;;;;;0.77;0.60;;;;;;;;;;6768664;26;20005;-75
2024/04/11 02:45:40;;;;;;;0.70;0.68;;;;;;;;;;6769205;26;20414;-75
2024/04/11 02:48:43;;;;;;;0.83;0.70;;;;;;;;;;6798858;26;20059;-75
2024/04/11 02:51:44;;;;;;;0.80;0.73;;;;;;;;;;6816732;26;20005;-75
2024/04/11 02:54:44;;;;;;;1.00;0.70;;;;;;;;;;6812781;26;20442;-75
2024/04/11 02:57:44;;;;;;;1.07;0.87;;;;;;;;;;6801314;26;20010;-75
2024/04/11 03:00:46;;;;;;;0.67;0.67;;;;;;;;;;6811758;26;20017;-75
2024/04/11 03:03:46;;;;;;;0.75;0.73;;;;;;;;;;6816187;26;19994;-74
2024/04/11 03:06:47;;;;;;;1.40;0.60;;;;;;;;;;6816866;26;19990;-75
2024/04/11 03:09:47;;;;;;;0.80;0.70;;;;;;;;;;6804517;26;19987;-75
2024/04/11 03:12:48;;;;;;;2.17;0.73;;;;;;;;;;6775909;26;20013;-75
2024/04/11 03:15:56;;;;;;;1.35;0.82;;;;;;;;;;6817668;26;19998;-75
2024/04/11 03:18:56;;;;;;;0.75;0.73;;;;;;;;;;6772489;26;20188;-75
2024/04/11 03:21:57;;;;;;;0.93;0.70;;;;;;;;;;6816738;26;20021;-76
2024/04/11 03:24:57;;;;;;;1.07;0.77;;;;;;;;;;6814426;26;20498;-75
2024/04/11 03:27:58;;;;;;;0.90;0.80;;;;;;;;;;6817038;26;20026;-75
2024/04/11 03:31:04;;;;;;;0.97;0.80;;;;;;;;;;6812382;26;20353;-75
2024/04/11 03:34:04;;;;;;;1.40;0.70;;;;;;;;;;6799235;26;20119;-74
2024/04/11 03:37:05;;;;;;;0.90;0.77;;;;;;;;;;6771543;26;20048;-75
2024/04/11 03:40:05;;;;;;;1.07;0.60;;;;;;;;;;6790928;26;20039;-74
2024/04/11 03:43:06;;;;;;;0.90;0.70;;;;;;;;;;6816553;26;20278;-75
2024/04/11 03:46:09;;;;;;;1.17;0.70;;;;;;;;;;6812545;26;24744;-74
2024/04/11 03:49:10;;;;;;;1.98;0.60;;;;;;;;;;6784305;26;20019;-75
2024/04/11 03:52:10;;;;;;;1.20;0.70;;;;;;;;;;6814113;26;20018;-77
2024/04/11 03:55:10;;;;;;;1.30;0.70;;;;;;;;;;6777554;26;19991;-75
2024/04/11 03:58:10;;;;;;;1.00;0.80;;;;;;;;;;6782409;26;19998;-75
2024/04/11 04:01:14;;;;;;;1.17;0.87;;;;;;;;;;6802532;26;20001;-75
2024/04/11 04:04:19;;;;;;;1.20;0.60;;;;;;;;;;6787903;26;20013;-75
2024/04/11 04:07:19;;;;;;;0.88;0.65;;;;;;;;;;6805726;26;20010;-75
2024/04/11 04:10:20;;;;;;;0.77;0.77;;;;;;;;;;6815804;26;20002;-75
2024/04/11 04:13:20;;;;;;;1.37;0.83;;;;;;;;;;6810010;26;20005;-75
2024/04/11 04:16:21;;;;;;;1.17;0.70;;;;;;;;;;6771438;26;20063;-74
2024/04/11 04:19:22;;;;;;;0.70;0.70;;;;;;;;;;6781371;26;20598;-75
2024/04/11 04:22:22;;;;;;;1.10;0.70;;;;;;;;;;6770938;26;19998;-76
2024/04/11 04:25:25;;;;;;;1.97;0.90;;;;;;;;;;6801366;26;20002;-75
2024/04/11 04:28:32;;;;;;;1.65;0.90;;;;;;;;;;6814467;26;20013;-75
2024/04/11 04:31:33;;;;;;;3.72;2.42;;;;;;;;;;6816036;26;20354;-75
2024/04/11 04:34:34;;;;;;;2.28;1.70;;;;;;;;;;6811036;26;20074;-75
2024/04/11 04:37:34;;;;;;;3.17;1.40;;;;;;;;;;6812464;26;20021;-75
2024/04/11 04:40:34;;;;;;;0.83;0.83;;;;;;;;;;6798123;26;19990;-75
2024/04/11 04:43:35;;;;;;;1.00;0.90;;;;;;;;;;6775382;26;20268;-74
2024/04/11 04:46:36;;;;;;;1.50;0.90;;;;;;;;;;6774165;26;20013;-75
2024/04/11 04:49:37;;;;;;;2.35;0.85;;;;;;;;;;6809395;26;20005;-76
2024/04/11 04:52:38;;;;;;;1.50;0.90;;;;;;;;;;6813505;26;20010;-78
2024/04/11 04:55:38;;;;;;;1.58;0.90;;;;;;;;;;6812777;26;20017;-75
2024/04/11 04:58:38;;;;;;;1.00;0.90;;;;;;;;;;6790636;26;20444;-75
2024/04/11 05:01:40;;;;;;;1.27;0.80;;;;;;;;;;6779097;26;20446;-76
2024/04/11 05:04:41;;;;;;;1.25;0.80;;;;;;;;;;6814086;26;20005;-75
2024/04/11 05:07:41;;;;;;;2.17;0.80;;;;;;;;;;6812324;26;20041;-75
2024/04/11 05:10:41;;;;;;;0.80;0.80;;;;;;;;;;6811936;26;20458;-74
2024/04/11 05:13:45;;;;;;;0.90;0.80;;;;;;;;;;6812605;26;20683;-75
2024/04/11 05:16:46;;;;;;;1.52;1.00;;;;;;;;;;6801982;26;19994;-75
2024/04/11 05:19:46;;;;;;;1.70;0.97;;;;;;;;;;6787900;26;20427;-74
2024/04/11 05:22:47;;;;;;;1.87;0.77;;;;;;;;;;6801796;26;20447;-77
2024/04/11 05:25:47;;;;;;;2.78;0.90;;;;;;;;;;6805384;26;20504;-75
2024/04/11 05:28:47;;;;;;;1.87;0.90;;;;;;;;;;6814984;26;19982;-75
2024/04/11 05:31:47;;;;;;;0.60;0.60;;;;;;;;;;6797301;26;20453;-76
2024/04/11 05:34:49;;;;;;;0.70;0.70;;;;;;;;;;6786866;26;19994;-76
2024/04/11 05:37:49;;;;;;;1.10;0.90;;;;;;;;;;6776117;26;20443;-76
2024/04/11 05:40:50;;;;;;;1.10;0.83;;;;;;;;;;6773134;26;20017;-75
2024/04/11 05:43:50;;;;;;;2.40;0.97;;;;;;;;;;6814357;26;20267;-76
2024/04/11 05:46:50;;;;;;;2.33;1.70;;;;;;;;;;6796217;26;19994;-75
2024/04/11 05:49:50;;;;;;;1.77;1.47;;;;;;;;;;6785355;26;20217;-76
2024/04/11 05:52:51;;;;;;;1.30;1.17;;;;;;;;;;6779921;26;20007;-75
2024/04/11 05:55:51;;;;;;;1.67;1.17;;;;;;;;;;6812476;26;19991;-75
2024/04/11 05:58:51;;;;;;;1.38;0.80;;;;;;;;;;6793414;26;20013;-75
2024/04/11 06:01:52;;;;;;;1.17;0.70;;;;;;;;;;6814018;26;20461;-75
2024/04/11 06:04:52;;;;;;;1.00;0.75;;;;;;;;;;6775430;26;19999;-77
2024/04/11 06:07:53;;;;;;;1.63;0.90;;;;;;;;;;6778948;26;20005;-77
2024/04/11 06:10:53;;;;;;;1.30;1.00;;;;;;;;;;6780451;26;20006;-76
2024/04/11 06:13:53;;;;;;;1.70;1.00;;;;;;;;;;6784694;26;20315;-76
2024/04/11 06:16:53;;;;;;;1.20;0.80;;;;;;;;;;6810847;26;20450;-75
2024/04/11 06:19:55;;;;;;;2.33;0.90;;;;;;;;;;6797624;26;20526;-77
2024/04/11 06:22:59;;;;;;;1.30;1.00;;;;;;;;;;6813109;26;20026;-78
2024/04/11 06:26:00;;;;;;;1.42;0.98;;;;;;;;;;6808708;26;20006;-75
2024/04/11 06:29:01;;;;;;;0.82;0.80;;;;;;;;;;6820829;26;19998;-76
2024/04/11 06:32:01;;;;;;;;;;;;;;;;;;6815529;26;20159;-77
2024/04/11 06:35:04;;;;;;;0.77;0.70;;;;;;;;;;6815003;26;20360;-76
2024/04/11 06:38:05;;;;;;;1.10;0.90;;;;;;;;;;6816679;26;19998;-75
2024/04/11 06:41:08;;;;;;;0.73;0.73;;;;;;;;;;6823893;26;20013;-76
2024/04/11 06:44:10;;;;;;;1.38;0.90;;;;;;;;;;6815260;26;20029;-75
2024/04/11 06:47:10;;;;;;;1.83;1.13;;;;;;;;;;6803556;26;20012;-82
2024/04/11 06:50:10;;;;;;;3.43;1.30;;;;;;;;;;6773322;26;19994;-77
2024/04/11 06:53:11;;;;;;;2.10;0.80;;;;;;;;;;6797499;26;20033;-75
2024/04/11 06:56:15;;;;;;;1.35;0.98;;;;;;;;;;6813821;26;20455;-75
2024/04/11 06:59:17;;;;;;;2.03;1.05;;;;;;;;;;6787153;26;20001;-75
2024/04/11 07:02:17;;;;;;;2.30;1.05;;;;;;;;;;6791652;26;20072;-76
2024/04/11 07:05:20;;;;;;;2.17;1.10;;;;;;;;;;6790931;26;20384;-76
2024/04/11 07:08:25;;;;;;;1.10;0.80;;;;;;;;;;6772780;26;20002;-75
2024/04/11 07:11:32;;;;;;;1.67;0.80;;;;;;;;;;6794581;26;20030;-75
2024/04/11 07:14:32;;;;;;;1.20;0.93;;;;;;;;;;6800087;26;19998;-76
2024/04/11 07:17:33;;;;;;;2.07;0.97;;;;;;;;;;6771773;26;20010;-75
2024/04/11 07:20:35;;;;;;;1.83;0.80;;;;;;;;;;6770919;26;19999;-76
2024/04/11 07:23:37;;;;;;;1.42;0.80;;;;;;;;;;6770796;26;20003;-75
2024/04/11 07:26:38;;;;;;;1.45;0.98;;;;;;;;;;6786393;26;20381;-76
2024/04/11 07:29:39;;;;;;;2.22;1.92;;;;;;;;;;6796104;26;19994;-77
2024/04/11 07:32:40;;;;;;;2.50;1.40;;;;;;;;;;6778130;26;20100;-79
2024/04/11 07:35:40;;;;;;;;;;;;;;;;;;6776232;26;20035;-77
2024/04/11 07:38:40;;;;;;;2.20;1.20;;;;;;;;;;6788666;26;19931;-75
2024/04/11 07:41:46;;;;;;;0.90;0.90;;;;;;;;;;6796593;26;19994;-80
2024/04/11 07:44:47;;;;;;;2.05;0.98;;;;;;;;;;6789822;26;20383;-81
2024/04/11 07:47:47;;;;;;;1.10;1.00;;;;;;;;;;6789623;26;19998;-81
2024/04/11 07:50:48;;;;;;;;;;;;;;;;;;6780238;26;20327;-79
2024/04/11 07:53:49;;;;;;;1.20;0.65;;;;;;;;;;6785762;26;19935;-79
2024/04/11 07:56:50;;;;;;;;;;;;;;;;;;6804140;26;19998;-80
2024/04/11 07:59:50;;;;;;;0.70;0.70;;;;;;;;;;6798270;26;19993;-79
2024/04/11 08:02:56;;;;;;;1.05;0.90;;;;;;;;;;6791350;26;19994;-78
2024/04/11 08:05:56;;;;;;;1.08;0.75;;;;;;;;;;6814422;26;20009;-76
2024/04/11 08:08:56;;;;;;;;;;;;;;;;;;6814129;26;20386;-76
2024/04/11 08:11:56;;;;;;;1.77;0.90;;;;;;;;;;6802414;26;19972;-76
2024/04/11 08:14:56;;;;;;;;;;;;;;;;;;6806192;26;20001;-76
2024/04/11 08:17:57;;;;;;;1.52;0.85;;;;;;;;;;6790680;26;19928;-75
2024/04/11 08:20:57;;;;;;;;;;;;;;;;;;6816086;26;20009;-80
2024/04/11 08:24:00;;;;;;;1.05;0.73;;;;;;;;;;6802243;26;19965;-79
2024/04/11 08:27:01;;;;;;;1.45;0.93;;;;;;;;;;6786485;26;20014;-80
2024/04/11 08:30:01;;;;;;;;;;;;;;;;;;6778950;26;20003;-78
2024/04/11 08:33:05;;;;;;;1.30;1.10;;;;;;;;;;6787717;26;20369;-78
2024/04/11 08:36:08;;;;;;;2.45;0.90;;;;;;;;;;6816176;26;20021;-79
2024/04/11 08:39:09;;;;;;;;;;;;;;;;;;6781623;26;20131;-78
2024/04/11 08:42:12;;;;;;;1.20;0.73;;;;;;;;;;6798514;26;20371;-78
2024/04/11 08:45:13;;;;;;;0.80;0.70;;;;;;;;;;6806781;26;20006;-76
2024/04/11 08:48:13;;;;;;;;;;;;;;;;;;6776205;26;20009;-76
2024/04/11 08:51:19;;;;;;;0.80;0.57;;;;;;;;;;6797409;26;19925;-77
2024/04/11 08:54:20;;;;;;;0.90;0.80;;;;;;;;;;6790870;26;20453;-76
2024/04/11 08:57:20;;;;;;;;;;;;;;;;;;6795859;26;20007;-79
2024/04/11 09:00:21;;;;;;;1.05;0.80;;;;;;;;;;6809705;26;20004;-78
2024/04/11 09:03:22;;;;;;;;;;;;;;;;;;6787660;26;20699;-77
2024/04/11 09:06:28;;;;;;;1.23;0.77;;;;;;;;;;6790329;26;19960;-77
2024/04/11 09:09:28;;;;;;;0.90;0.77;;;;;;;;;;6769262;26;19998;-77
2024/04/11 09:12:28;;;;;;;;;;;;;;;;;;6775915;26;20014;-81
2024/04/11 09:15:29;;;;;;;1.67;0.80;;;;;;;;;;6796460;26;19931;-81
2024/04/11 09:18:29;;;;;;;;;;;;;;;;;;6791694;26;20008;-80
2024/04/11 09:21:31;;;;;;;1.00;0.50;;;;;;;;;;6812133;26;20442;-81
2024/04/11 09:24:32;;;;;;;1.10;0.90;;;;;;;;;;6813349;26;19991;-80
2024/04/11 09:27:42;;;;;;;2.13;0.80;;;;;;;;;;6811842;26;20009;-81
2024/04/11 09:30:45;;;;;;;1.20;0.90;;;;;;;;;;6803504;26;20105;-81
2024/04/11 09:33:49;;;;;;;3.25;1.27;;;;;;;;;;6803352;26;20029;-80
2024/04/11 09:36:50;;;;;;;1.02;0.93;;;;;;;;;;6814016;26;19990;-80
2024/04/11 09:39:56;;;;;;;;;;;;;;;;;;6814307;26;19990;-81
2024/04/11 09:43:03;;;;;;;1.13;0.73;;;;;;;;;;6814306;26;19930;-81
2024/04/11 09:46:06;;;;;;;0.98;0.70;;;;;;;;;;6812334;26;20066;-82
2024/04/11 09:49:09;;;;;;;1.33;0.80;;;;;;;;;;6781258;26;19991;-81
2024/04/11 09:52:10;;;;;;;0.88;0.63;;;;;;;;;;6768752;26;19999;-81
2024/04/11 09:55:15;;;;;;;;;;;;;;;;;;6767941;26;20331;-82
2024/04/11 09:58:18;;;;;;;1.70;0.70;;;;;;;;;;6769295;26;19935;-82
2024/04/11 10:01:31;;;;;;;1.27;0.70;;;;;;;;;;6770511;26;20034;-82
2024/04/11 10:04:36;;;;;;;0.60;0.60;;;;;;;;;;6787811;26;19995;-81
2024/04/11 10:07:43;;;;;;;1.58;0.50;;;;;;;;;;6767709;26;20091;-82
2024/04/11 10:10:50;;;;;;;0.70;0.50;;;;;;;;;;6768821;26;19995;-82
2024/04/11 10:13:50;;;;;;;0.68;0.57;;;;;;;;;;6768850;26;19999;-81
2024/04/11 10:16:55;;;;;;;;;;;;;;;;;;6769655;26;20405;-81
2024/04/11 10:19:59;;;;;;;0.75;0.60;;;;;;;;;;6784657;26;20364;-80
2024/04/11 10:22:59;;;;;;;1.27;1.00;;;;;;;;;;6794854;26;19994;-81
2024/04/11 10:25:59;;;;;;;;;;;;;;;;;;6784597;26;20059;-81
2024/04/11 10:29:19;;;;;;;2.33;0.77;;;;;;;;;;6798112;26;19931;-82
2024/04/11 10:32:35;;;;;;;1.63;0.60;;;;;;;;;;6813519;26;20013;-82
2024/04/11 10:35:40;;;;;;;1.60;0.77;;;;;;;;;;6810050;26;20459;-82
2024/04/11 10:38:41;;;;;;;1.25;0.50;;;;;;;;;;6811108;26;20017;-82
2024/04/11 10:41:45;;;;;;;0.82;0.70;;;;;;;;;;6811304;26;20001;-81
2024/04/11 10:44:46;;;;;;;1.33;0.82;;;;;;;;;;6794869;26;19999;-81
2024/04/11 10:47:47;;;;;;;;;;;;;;;;;;6799038;26;20335;-81
2024/04/11 10:50:48;;;;;;;2.57;0.70;;;;;;;;;;6812405;26;20443;-81
2024/04/11 10:54:09;;;;;;;1.83;0.80;;;;;;;;;;6773591;26;20064;-82
2024/04/11 10:57:13;;;;;;;1.55;0.52;;;;;;;;;;6769347;26;20443;-82
2024/04/11 11:00:22;;;;;;;0.52;0.52;;;;;;;;;;6809320;26;20009;-81
2024/04/11 11:03:40;;;;;;;0.73;0.68;;;;;;;;;;6811459;26;20002;-81
2024/04/11 11:06:44;;;;;;;1.40;0.55;;;;;;;;;;6814837;26;20005;-81
2024/04/11 11:09:45;;;;;;;1.20;0.68;;;;;;;;;;6797554;26;20085;-80
2024/04/11 11:12:49;;;;;;;1.08;0.70;;;;;;;;;;6772254;26;20011;-81
2024/04/11 11:15:53;;;;;;;1.30;0.63;;;;;;;;;;6787189;26;20411;-81
2024/04/11 11:18:53;;;;;;;1.33;0.75;;;;;;;;;;6815862;26;19998;-81
2024/04/11 11:21:59;;;;;;;;;;;;;;;;;;6817233;26;20017;-81
2024/04/11 11:25:00;;;;;;;0.90;0.70;;;;;;;;;;6816045;26;19924;-82
2024/04/11 11:28:01;;;;;;;1.48;0.75;;;;;;;;;;6817046;26;20034;-82
2024/04/11 11:31:01;;;;;;;;;;;;;;;;;;6788522;26;19991;-81
2024/04/11 11:34:01;;;;;;;0.65;0.65;;;;;;;;;;6807021;26;19964;-81
2024/04/11 11:37:01;;;;;;;;;;;;;;;;;;6817354;26;19986;-80
2024/04/11 11:40:32;;;;;;;0.53;0.50;;;;;;;;;;6811964;26;20360;-81
2024/04/11 11:43:24;;;;;;;0.70;0.60;;;;;;;;;;6795304;26;20004;-82
2024/04/11 11:46:27;;;;;;;;;;;;;;;;;;6811651;26;20006;-81
2024/04/11 11:49:29;;;;;;;0.47;0.40;;;;;;;;;;6780158;26;19925;-76
2024/04/11 11:52:31;;;;;;;1.27;0.57;;;;;;;;;;6770484;26;20443;-76
2024/04/11 11:55:33;;;;;;;0.98;0.60;;;;;;;;;;6795873;26;20001;-76
2024/04/11 11:58:35;;;;;;;1.00;0.60;;;;;;;;;;6816619;26;19990;-76
2024/04/11 12:01:51;;;;;;;0.65;0.63;;;;;;;;;;6816553;26;20507;-76
2024/04/11 12:04:52;;;;;;;0.95;0.70;;;;;;;;;;6802627;26;20002;-75
2024/04/11 12:07:59;;;;;;;0.75;0.65;;;;;;;;;;6769947;26;20056;-75
2024/04/11 12:14:02;;;;;;;;;;;;;;;;;;6771353;26;20002;-75
2024/04/11 12:17:05;;;;;;;0.60;0.50;;;;;;;;;;6805017;26;20272;-75
2024/04/11 12:20:06;;;;;;;1.20;0.52;;;;;;;;;;6813629;26;20337;-75
2024/04/11 12:23:06;;;;;;;;;;;;;;;;;;6814849;26;19998;-75
2024/04/11 12:26:07;;;;;;;1.07;0.60;;;;;;;;;;6784859;26;19936;-77
2024/04/11 12:29:07;;;;;;;0.80;0.57;;;;;;;;;;6770714;26;19994;-76
2024/04/11 12:32:07;;;;;;;;;;;;;;;;;;6801393;26;20022;-76
2024/04/11 12:35:07;;;;;;;1.52;0.40;;;;;;;;;;6814234;26;19935;-76
2024/04/11 12:38:13;;;;;;;0.83;0.60;;;;;;;;;;6797836;26;20006;-76
2024/04/11 12:41:14;;;;;;;1.17;0.70;;;;;;;;;;6770806;26;20216;-75
2024/04/11 12:44:14;;;;;;;1.45;0.68;;;;;;;;;;6769302;26;20047;-75
2024/04/11 12:47:15;;;;;;;1.10;0.50;;;;;;;;;;6768197;26;20006;-77
2024/04/11 12:50:21;;;;;;;0.93;0.60;;;;;;;;;;6771087;26;20814;-75
2024/04/11 12:53:22;;;;;;;0.55;0.50;;;;;;;;;;6812167;26;19994;-75
2024/04/11 12:56:23;;;;;;;1.27;0.70;;;;;;;;;;6812769;26;20399;-76
2024/04/11 12:59:28;;;;;;;2.95;0.60;;;;;;;;;;6815480;26;20058;-74
2024/04/11 13:02:34;;;;;;;0.60;0.60;;;;;;;;;;6814886;26;19994;-76
2024/04/11 13:05:44;;;;;;;1.02;0.70;;;;;;;;;;6812152;26;20426;-75
2024/04/11 13:08:45;;;;;;;1.25;0.60;;;;;;;;;;6814253;26;19994;-76
2024/04/11 13:11:49;;;;;;;0.82;0.60;;;;;;;;;;6812065;26;20002;-75
2024/04/11 13:14:57;;;;;;;1.73;0.70;;;;;;;;;;6814884;26;20009;-75
2024/04/11 13:17:58;;;;;;;1.30;0.65;;;;;;;;;;6800013;26;20006;-76
2024/04/11 13:20:58;;;;;;;1.95;0.77;;;;;;;;;;6813801;26;20453;-76
2024/04/11 13:23:58;;;;;;;0.77;0.60;;;;;;;;;;6813859;26;19991;-77
2024/04/11 13:26:59;;;;;;;0.70;0.50;;;;;;;;;;6813465;26;20018;-76
2024/04/11 13:30:11;;;;;;;1.48;0.80;;;;;;;;;;6784587;26;20439;-76
2024/04/11 13:33:14;;;;;;;0.98;0.60;;;;;;;;;;6776151;26;20013;-75
2024/04/11 13:36:15;;;;;;;1.58;0.60;;;;;;;;;;6798327;26;20125;-75
2024/04/11 13:39:17;;;;;;;1.58;0.70;;;;;;;;;;6813025;26;20038;-75
2024/04/11 13:42:18;;;;;;;1.17;0.50;;;;;;;;;;6787843;26;20038;-76
2024/04/11 13:45:22;;;;;;;0.65;0.50;;;;;;;;;;6790856;26;20082;-75
2024/04/11 13:48:22;;;;;;;2.05;0.77;;;;;;;;;;6802764;26;20401;-75
2024/04/11 13:51:29;;;;;;;0.60;0.60;;;;;;;;;;6767822;26;20027;-75
2024/04/11 13:54:31;;;;;;;0.57;0.57;;;;;;;;;;6766297;26;19999;-76
2024/04/11 13:57:32;;;;;;;1.98;0.60;;;;;;;;;;6806049;26;20013;-83
2024/04/11 14:00:36;;;;;;;0.82;0.70;;;;;;;;;;6770022;26;20432;-82
2024/04/11 14:03:44;;;;;;;0.80;0.70;;;;;;;;;;6776891;26;20308;-82
2024/04/11 14:09:51;;;;;;;1.00;0.80;;;;;;;;;;6803565;26;20013;-81
2024/04/11 14:12:51;;;;;;;1.13;0.80;;;;;;;;;;6797129;26;20048;-79
2024/04/11 14:15:52;;;;;;;1.23;0.70;;;;;;;;;;6789689;26;20334;-79
2024/04/11 14:18:52;;;;;;;0.80;0.75;;;;;;;;;;6789537;26;20763;-80
2024/04/11 14:21:53;;;;;;;1.43;0.80;;;;;;;;;;6790616;26;20038;-79
2024/04/11 14:28:15;;;;;;;0.95;0.70;;;;;;;;;;6813610;26;19998;-81
2024/04/11 14:31:30;;;;;;;0.80;0.68;;;;;;;;;;6813959;26;20006;-80
2024/04/11 14:37:54;;;;;;;1.70;1.40;;;;;;;;;;6788026;26;20006;-79
2024/04/11 14:40:54;;;;;;;1.05;0.85;;;;;;;;;;6770630;26;20066;-80
2024/04/11 14:43:59;;;;;;;0.70;0.70;;;;;;;;;;6788843;26;20010;-79
2024/04/11 14:47:02;;;;;;;0.90;0.80;;;;;;;;;;6801406;26;20219;-78
2024/04/11 14:50:03;;;;;;;2.20;0.80;;;;;;;;;;6803200;26;20431;-79
2024/04/11 14:53:06;;;;;;;1.55;0.70;;;;;;;;;;6773141;26;20009;-80
2024/04/11 14:56:18;;;;;;;1.02;0.70;;;;;;;;;;6801310;26;19995;-79
2024/04/11 14:59:19;;;;;;;0.90;0.70;;;;;;;;;;6771716;26;20435;-79
2024/04/11 15:02:19;;;;;;;1.10;0.80;;;;;;;;;;6769401;26;20010;-80
2024/04/11 15:05:19;;;;;;;1.07;0.70;;;;;;;;;;6778581;26;20007;-79
2024/04/11 15:08:22;;;;;;;0.67;0.67;;;;;;;;;;6802071;26;20704;-79
2024/04/11 15:11:25;;;;;;;2.30;0.68;;;;;;;;;;6816543;26;20228;-79
2024/04/11 15:14:26;;;;;;;1.88;0.55;;;;;;;;;;6816914;26;19994;-79
2024/04/11 15:17:41;;;;;;;1.15;0.60;;;;;;;;;;6817168;26;20463;-80
2024/04/11 15:20:49;;;;;;;1.20;0.75;;;;;;;;;;6803916;26;20006;-82
2024/04/11 15:23:49;;;;;;;1.08;0.70;;;;;;;;;;6811337;26;20034;-82
2024/04/11 15:26:54;;;;;;;0.98;0.60;;;;;;;;;;6817443;26;20055;-82
2024/04/11 15:29:57;;;;;;;0.60;0.60;;;;;;;;;;6772342;26;20003;-82
2024/04/11 15:32:57;;;;;;;0.90;0.60;;;;;;;;;;6793327;26;20114;-82
2024/04/11 15:36:14;;;;;;;0.93;0.68;;;;;;;;;;6816057;26;20304;-81
2024/04/11 15:39:17;;;;;;;0.82;0.50;;;;;;;;;;6775396;26;20020;-82
2024/04/11 15:42:21;;;;;;;1.17;0.88;;;;;;;;;;6816645;26;20002;-81
2024/04/11 15:45:29;;;;;;;2.17;0.55;;;;;;;;;;6815758;26;20043;-81
2024/04/11 15:48:35;;;;;;;0.52;0.52;;;;;;;;;;6813874;26;19998;-82
2024/04/11 15:51:36;;;;;;;1.20;0.68;;;;;;;;;;6814978;26;20001;-82
2024/04/11 15:57:55;;;;;;;0.50;0.50;;;;;;;;;;6808362;26;19995;-83
2024/04/11 16:00:55;;;;;;;1.13;0.70;;;;;;;;;;6773044;26;20006;-83
2024/04/11 16:03:56;;;;;;;1.27;1.17;;;;;;;;;;6769625;26;20228;-83
2024/04/11 16:06:58;;;;;;;1.73;1.10;;;;;;;;;;6795012;26;20443;-82
2024/04/11 16:09:58;;;;;;;2.70;0.70;;;;;;;;;;6787092;26;20034;-83
2024/04/11 16:12:59;;;;;;;0.97;0.63;;;;;;;;;;6815396;26;20431;-82
2024/04/11 16:15:59;;;;;;;1.10;0.70;;;;;;;;;;6811163;26;20606;-85
2024/04/11 16:18:59;;;;;;;0.67;0.60;;;;;;;;;;6782561;26;20771;-82
2024/04/11 16:22:10;;;;;;;1.33;0.80;;;;;;;;;;6810408;26;20549;-82
2024/04/11 16:25:19;;;;;;;0.50;0.47;;;;;;;;;;6814320;26;20235;-85
2024/04/11 16:28:19;;;;;;;1.98;0.63;;;;;;;;;;6815773;26;20334;-76
2024/04/11 16:31:26;;;;;;;1.23;0.60;;;;;;;;;;6777783;26;20064;-78
2024/04/11 16:34:30;;;;;;;1.05;0.70;;;;;;;;;;6793944;26;20231;-79
2024/04/11 16:37:34;;;;;;;1.10;0.73;;;;;;;;;;6809787;26;19998;-77
2024/04/11 16:40:37;;;;;;;0.65;0.60;;;;;;;;;;6788246;26;20381;-79
2024/04/11 16:43:37;;;;;;;2.90;0.55;;;;;;;;;;6798052;26;20003;-79
2024/04/11 16:46:41;;;;;;;2.00;0.60;;;;;;;;;;6770661;26;20007;-79
2024/04/11 16:49:42;;;;;;;0.70;0.60;;;;;;;;;;6790135;26;20260;-79
2024/04/11 16:52:43;;;;;;;1.00;0.70;;;;;;;;;;6785492;26;19998;-79
2024/04/11 16:55:47;;;;;;;0.73;0.60;;;;;;;;;;6772121;26;20496;-79
2024/04/11 16:58:47;;;;;;;0.50;0.43;;;;;;;;;;6773828;26;20006;-81
2024/04/11 17:01:48;;;;;;;1.75;0.63;;;;;;;;;;6793110;26;20427;-81
2024/04/11 17:04:49;;;;;;;0.77;0.60;;;;;;;;;;6780301;26;20466;-82
2024/04/11 17:07:50;;;;;;;1.05;0.60;;;;;;;;;;6790729;26;20002;-83
2024/04/11 17:10:55;;;;;;;1.02;0.70;;;;;;;;;;6808803;26;20455;-81
2024/04/11 17:13:58;;;;;;;0.95;0.70;;;;;;;;;;6771743;26;19995;-80
2024/04/11 17:17:14;;;;;;;0.88;0.60;;;;;;;;;;6808491;26;19994;-81
2024/04/11 17:23:21;;;;;;;0.70;0.47;;;;;;;;;;6780317;26;19994;-81
2024/04/11 17:26:21;;;;;;;0.60;0.53;;;;;;;;;;6809895;26;20059;-80
2024/04/11 17:32:44;;;;;;;0.70;0.50;;;;;;;;;;6787035;26;20482;-81
2024/04/11 17:36:33;;;;;;;1.13;0.70;;;;;;;;;;6792602;26;20028;-81
2024/04/11 17:42:25;;;;;;;3.65;2.60;;;;;;;;;;6794451;26;19998;-76
2024/04/11 17:45:28;;;;;;;2.15;1.58;;;;;;;;;;6771554;26;20026;-74
2024/04/11 17:48:40;;;;;;;2.65;1.15;;;;;;;;;;6783158;26;19994;-74
2024/04/11 17:51:43;;;;;;;1.63;1.02;;;;;;;;;;6797657;26;19991;-74
2024/04/11 17:54:46;;;;;;;1.13;0.90;;;;;;;;;;6769754;26;19987;-74
2024/04/11 17:57:47;;;;;;;1.50;0.98;;;;;;;;;;6805755;26;20014;-74
2024/04/11 18:00:52;;;;;;;;;;;;;;;;;;6784659;26;20008;-74
2024/04/11 18:03:52;;;;;;;1.83;0.90;;;;;;;;;;6773264;26;20023;-75
2024/04/11 18:06:54;;;;;;;;;;;;;;;;;;6791959;26;20433;-74
2024/04/11 18:09:54;;;;;;;1.95;0.93;;;;;;;;;;6770094;26;19924;-74
2024/04/11 18:12:54;;;;;;;;;;;;;;;;;;6770991;26;20541;-74
2024/04/11 18:16:00;;;;;;;1.38;0.75;;;;;;;;;;6774238;26;19985;-74
2024/04/11 18:19:00;;;;;;;2.30;1.55;;;;;;;;;;6772445;26;20435;-74
2024/04/11 18:22:00;;;;;;;;;;;;;;;;;;6772368;26;19995;-75
2024/04/11 18:25:06;;;;;;;1.98;1.30;;;;;;;;;;6803002;26;19952;-75
2024/04/11 18:28:13;;;;;;;1.20;1.10;;;;;;;;;;6806785;26;20026;-74
2024/04/11 18:31:19;;;;;;;1.45;1.15;;;;;;;;;;6813192;26;20008;-74
2024/04/11 18:34:19;;;;;;;1.73;0.85;;;;;;;;;;6787783;26;20010;-74
2024/04/11 18:37:21;;;;;;;;;;;;;;;;;;6773580;26;20410;-75
2024/04/11 18:43:29;;;;;;;1.63;0.80;;;;;;;;;;6809337;26;19998;-74
2024/04/11 18:46:47;;;;;;;1.65;1.17;;;;;;;;;;6809035;26;20002;-76
2024/04/11 18:49:49;;;;;;;0.90;0.70;;;;;;;;;;6805515;26;19994;-78
2024/04/11 18:52:52;;;;;;;1.00;0.80;;;;;;;;;;6783503;26;19997;-82
2024/04/11 18:55:55;;;;;;;1.35;0.70;;;;;;;;;;6781320;26;20017;-79